Time;durP1;ratioP1;P1;durP2;ratioP2;P2;SDS_P1;SDS_P2;PMS_P1;PMS_P2;Temp;Humidity;BMP_temperature;BMP_pressure;BME280_temperature;BME280_humidity;BME280_pressure;Samples;Min_cycle;Max_cycle;Signal;HPM_P1;HPM_P2
2023/10/12 00:02:27;;;;;;;;;6.67;6.67;;;;;24.29;49.23;100671.56;6221355;22;44872;-80
2023/10/12 00:07:33;;;;;;;;;6.00;6.00;;;;;24.13;49.17;100663.19;6249205;22;45145;-79
2023/10/12 00:10:20;;;;;;;;;7.00;7.00;;;;;24.23;48.85;100676.38;6221355;22;44938;-79
2023/10/12 00:16:09;;;;;;;;;6.00;6.00;;;;;24.13;49.15;100663.19;6250937;22;44852;-83
2023/10/12 00:18:35;;;;;;;;;6.67;6.67;;;;;24.10;49.01;100651.59;6223361;22;46793;-82
2023/10/12 00:21:07;;;;;;;;;7.00;6.67;;;;;24.13;49.20;100654.16;6223292;22;45794;-83
2023/10/12 00:23:33;;;;;;;;;7.00;7.00;;;;;24.24;49.55;100661.84;6222542;22;44791;-83
2023/10/12 00:26:46;;;;;;;;;7.33;6.33;;;;;24.38;48.93;100656.69;6247467;22;44871;-83
2023/10/12 00:29:12;;;;;;;;;9.33;7.67;;;;;24.07;49.94;100658.03;6224359;22;47697;-83
2023/10/12 00:31:41;;;;;;;;;7.00;7.00;;;;;24.08;49.52;100656.22;6224871;22;45499;-79
2023/10/12 00:34:08;;;;;;;;;6.67;6.67;;;;;24.04;49.85;100655.47;6198643;22;44822;-80
2023/10/12 00:36:37;;;;;;;;;6.00;6.00;;;;;24.07;49.90;100658.03;6220796;22;45333;-80
2023/10/12 00:39:10;;;;;;;;;6.00;6.00;;;;;24.13;49.72;100665.91;6221271;22;47113;-82
2023/10/12 00:41:45;;;;;;;;;8.67;5.67;;;;;24.26;49.32;100665.38;6223183;22;44808;-83
2023/10/12 00:44:18;;;;;;;;;7.00;7.00;;;;;24.05;49.64;100665.34;6248864;22;45272;-80
2023/10/12 00:49:22;;;;;;;;;11.67;6.33;;;;;24.11;49.38;100662.38;6262782;22;44875;-80
2023/10/12 00:52:08;;;;;;;;;8.33;7.33;;;;;24.28;49.37;100658.03;6262844;22;44894;-80
2023/10/12 00:57:09;;;;;;;;;10.00;7.00;;;;;24.07;49.74;100647.16;6261666;22;44934;-80
2023/10/12 00:59:36;;;;;;;;;9.33;8.33;;;;;24.11;49.99;100640.63;6260330;22;45348;-80
2023/10/12 01:02:08;;;;;;;;;12.00;9.00;;;;;24.09;49.83;100628.94;6254174;22;45511;-83
2023/10/12 01:07:55;;;;;;;;;8.33;7.67;;;;;24.04;50.40;100628.28;6252391;22;44846;-82
2023/10/12 01:10:28;;;;;;;;;9.33;8.67;;;;;24.02;50.27;100626.59;6228194;22;47541;-80
2023/10/12 01:12:57;;;;;;;;;10.00;8.00;;;;;24.17;50.01;100632.22;6261025;22;44708;-80
2023/10/12 01:15:27;;;;;;;;;7.33;7.33;;;;;23.98;50.26;100622.25;6234104;22;44906;-80
2023/10/12 01:17:54;;;;;;;;;6.67;6.67;;;;;24.06;50.20;100633.66;6262038;22;44772;-80
2023/10/12 01:20:38;;;;;;;;;9.33;8.00;;;;;24.06;50.27;100623.66;6261382;22;45088;-80
2023/10/12 01:23:03;;;;;;;;;8.33;6.67;;;;;23.88;50.22;100632.63;6233061;22;44872;-80
2023/10/12 01:25:29;;;;;;;;;8.67;6.33;;;;;23.95;50.52;100636.81;6233050;22;44864;-80
2023/10/12 01:27:55;;;;;;;;;8.00;8.00;;;;;23.96;50.18;100641.31;6259883;22;45253;-80
2023/10/12 01:30:22;;;;;;;;;9.00;8.00;;;;;23.90;50.60;100626.16;6232429;22;47133;-80
2023/10/12 01:32:57;;;;;;;;;10.00;8.00;;;;;24.12;50.20;100634.28;6233810;22;44811;-80
2023/10/12 01:35:32;;;;;;;;;9.33;8.67;;;;;23.92;50.45;100645.13;6232851;22;44779;-80
2023/10/12 01:38:01;;;;;;;;;11.33;7.67;;;;;23.93;50.63;100636.00;6234693;22;44820;-79
2023/10/12 01:40:52;;;;;;;;;10.67;10.67;;;;;24.12;50.24;100647.84;6261046;22;46472;-80
2023/10/12 01:43:18;;;;;;;;;8.33;8.00;;;;;23.93;50.38;100634.16;6233883;22;44860;-79
2023/10/12 01:45:58;;;;;;;;;7.00;7.00;;;;;24.16;50.48;100640.47;6262240;22;44735;-79
2023/10/12 01:48:29;;;;;;;;;9.00;7.33;;;;;23.90;50.50;100637.03;6233788;22;44859;-80
2023/10/12 01:50:55;;;;;;;;;10.00;9.00;;;;;23.89;50.44;100640.69;6260754;22;45866;-80
2023/10/12 01:53:40;;;;;;;;;8.00;8.00;;;;;23.90;50.72;100649.75;6260821;22;44826;-80
2023/10/12 01:56:09;;;;;;;;;8.67;7.00;;;;;23.85;50.41;100639.03;6260837;22;44902;-79
2023/10/12 02:02:07;;;;;;;;;7.00;7.00;;;;;23.95;50.10;100637.69;6255129;22;45356;-83
2023/10/12 02:04:39;;;;;;;;;7.00;7.00;;;;;23.91;50.43;100644.22;6225760;22;44862;-80
2023/10/12 02:07:05;;;;;;;;;9.00;7.00;;;;;23.78;50.45;100633.97;6259247;22;44807;-80
2023/10/12 02:09:34;;;;;;;;;7.33;5.67;;;;;23.74;50.62;100631.34;6260281;22;44765;-79
2023/10/12 02:12:10;;;;;;;;;7.67;5.00;;;;;23.86;50.55;100632.69;6232432;22;47022;-80
2023/10/12 02:14:40;;;;;;;;;11.00;7.33;;;;;23.79;50.50;100641.16;6256569;22;44741;-82
2023/10/12 02:17:08;;;;;;;;;7.00;7.00;;;;;23.84;50.49;100639.13;6223850;22;44755;-82
2023/10/12 02:22:06;;;;;;;;;8.00;7.00;;;;;23.76;50.51;100650.28;6250887;22;46048;-82
2023/10/12 02:24:35;;;;;;;;;11.33;8.00;;;;;23.74;50.48;100644.91;6224995;22;44841;-80
2023/10/12 02:27:01;;;;;;;;;6.67;6.67;;;;;23.67;50.24;100640.72;6231880;22;45295;-81
2023/10/12 02:29:28;;;;;;;;;7.00;6.00;;;;;23.66;50.57;100648.91;6230737;22;45367;-80
2023/10/12 02:31:58;;;;;;;;;7.67;6.00;;;;;23.70;50.45;100653.25;6254024;22;45405;-80
2023/10/12 02:34:26;;;;;;;;;10.00;9.00;;;;;23.83;50.50;100659.09;6227514;22;45091;-79
2023/10/12 02:39:42;;;;;;;;;8.67;8.67;;;;;23.81;50.44;100658.25;6249238;22;44720;-79
2023/10/12 02:47:40;;;;;;;;;9.00;7.33;;;;;23.69;50.81;100637.91;6248750;22;44846;-79
2023/10/12 02:52:43;;;;;;;;;6.00;6.00;;;;;23.83;50.36;100630.09;6242963;22;45008;-78
2023/10/12 02:57:53;;;;;;;;;8.00;8.00;;;;;23.68;50.48;100638.88;6248951;22;44733;-79
2023/10/12 03:01:12;;;;;;;;;10.33;8.67;;;;;23.86;50.70;100634.53;6249657;22;44764;-77
2023/10/12 03:03:25;;;;;;;;;11.67;10.00;;;;;23.78;50.63;100637.56;6241160;22;45888;-78
2023/10/12 03:05:58;;;;;;;;;9.67;9.67;;;;;23.75;51.18;100634.94;6221733;22;45260;-79
2023/10/12 03:08:24;;;;;;;;;7.33;7.00;;;;;23.63;51.09;100641.78;6249205;22;44757;-79
2023/10/12 03:13:33;;;;;;;;;9.33;8.67;;;;;23.62;50.95;100629.13;6225068;22;45546;-78
2023/10/12 03:16:03;;;;;;;;;10.33;9.00;;;;;23.54;51.37;100613.16;6247712;22;45364;-78
2023/10/12 03:18:29;;;;;;;;;9.00;8.00;;;;;23.59;50.84;100629.25;6222629;22;45242;-78
2023/10/12 03:21:04;;;;;;;;;9.00;8.67;;;;;23.63;51.37;100655.34;6249948;22;45306;-77
2023/10/12 03:23:33;;;;;;;;;8.00;8.00;;;;;23.66;51.23;100638.03;6221444;22;46753;-80
2023/10/12 03:26:05;;;;;;;;;8.00;8.00;;;;;23.80;51.20;100642.94;6249279;22;45334;-79
2023/10/12 03:28:43;;;;;;;;;8.00;8.00;;;;;23.58;51.60;100629.34;6220506;22;45417;-79
2023/10/12 03:31:21;;;;;;;;;9.00;9.00;;;;;23.62;51.47;100648.16;6221338;22;45176;-79
2023/10/12 03:33:53;;;;;;;;;10.00;9.00;;;;;23.63;51.58;100659.88;6248251;22;45240;-78
2023/10/12 03:36:25;;;;;;;;;7.33;7.00;;;;;23.59;51.28;100656.41;6247465;22;44740;-80
2023/10/12 03:39:27;;;;;;;;;11.00;9.00;;;;;23.73;51.63;100662.16;6246226;22;44757;-79
2023/10/12 03:41:46;;;;;;;;;8.00;8.00;;;;;23.58;51.88;100653.78;6243128;22;44870;-80
2023/10/12 03:44:49;;;;;;;;;8.67;8.33;;;;;23.73;51.81;100645.88;6250440;22;45417;-78
2023/10/12 03:52:59;;;;;;;;;11.33;9.00;;;;;23.52;52.36;100635.91;6249744;22;44814;-79
2023/10/12 03:55:32;;;;;;;;;9.00;9.00;;;;;23.49;51.73;100641.44;6243679;22;45082;-79
2023/10/12 03:58:07;;;;;;;;;9.33;9.33;;;;;23.45;51.98;100640.72;6247927;22;44877;-79
2023/10/12 04:00:47;;;;;;;;;8.00;7.00;;;;;23.53;52.30;100632.22;6247502;22;45276;-79
2023/10/12 04:03:33;;;;;;;;;10.33;10.33;;;;;23.53;52.40;100632.22;6221376;22;44894;-79
2023/10/12 04:06:04;;;;;;;;;7.67;7.33;;;;;23.45;52.47;100642.50;6221009;22;47247;-78
2023/10/12 04:18:33;;;;;;;;;10.67;8.67;;;;;23.48;52.48;100643.28;6250716;22;44789;-79
2023/10/12 04:20:59;;;;;;;;;9.67;9.33;;;;;23.52;52.07;100657.63;6222874;22;44941;-80
2023/10/12 04:26:27;;;;;;;;;9.00;8.00;;;;;23.58;52.00;100656.50;6250733;22;45140;-80
2023/10/12 04:28:56;;;;;;;;;10.67;10.00;;;;;23.40;52.37;100666.25;6250500;22;45399;-79
2023/10/12 04:36:33;;;;;;;;;9.67;9.67;;;;;23.34;52.70;100662.84;6248999;22;45643;-80
2023/10/12 04:39:10;;;;;;;;;10.67;9.33;;;;;23.34;52.52;100654.69;6224387;22;44851;-79
2023/10/12 04:46:05;;;;;;;;;11.67;10.67;;;;;23.51;52.51;100669.41;6248162;22;44879;-81
2023/10/12 04:48:22;;;;;;;;;9.00;9.00;;;;;23.40;53.16;100661.72;6248886;22;45358;-79
2023/10/12 04:51:18;;;;;;;;;10.67;10.00;;;;;23.29;53.83;100655.81;6248955;22;45358;-79
2023/10/12 04:56:49;;;;;;;;;10.33;10.33;;;;;23.23;53.75;100656.06;6103171;23;44842;-82
2023/10/12 04:59:16;;;;;;;;;14.00;13.00;;;;;23.23;53.82;100662.41;6100273;23;45349;-82
2023/10/12 05:04:36;;;;;;;;;10.33;10.33;;;;;23.16;53.74;100656.31;6100920;23;45384;-83
2023/10/12 05:09:38;;;;;;;;;12.00;12.00;;;;;23.17;54.15;100654.50;6101665;23;45155;-83
2023/10/12 05:12:04;;;;;;;;;13.00;13.00;;;;;23.21;54.24;100653.44;6101186;23;44784;-82
2023/10/12 05:14:31;;;;;;;;;10.67;10.67;;;;;23.16;54.18;100655.44;6075340;23;44925;-83
2023/10/12 05:16:57;;;;;;;;;9.33;9.33;;;;;23.11;54.15;100657.47;6089640;23;44834;-83
2023/10/12 05:19:23;;;;;;;;;12.00;11.33;;;;;23.13;54.62;100663.72;6097911;23;47370;-82
2023/10/12 05:21:48;;;;;;;;;9.67;9.33;;;;;23.15;54.26;100659.09;6097221;23;44845;-83
2023/10/12 05:24:13;;;;;;;;;11.67;8.67;;;;;23.12;54.63;100648.38;6076854;23;45113;-83
2023/10/12 05:26:51;;;;;;;;;15.00;13.67;;;;;23.27;54.37;100647.75;6129927;22;44819;-84
2023/10/12 05:37:26;;;;;;;;;11.67;11.33;;;;;23.05;55.22;100642.31;6253654;22;45375;-82
2023/10/12 05:39:59;;;;;;;;;13.67;13.67;;;;;22.98;55.17;100646.16;6227522;22;46988;-82
2023/10/12 05:42:25;;;;;;;;;14.67;11.67;;;;;22.93;54.87;100659.03;6227659;22;44793;-82
2023/10/12 05:44:53;;;;;;;;;9.00;8.67;;;;;23.09;55.18;100670.19;6225073;22;45428;-82
2023/10/12 05:47:29;;;;;;;;;10.33;9.33;;;;;23.06;55.41;100686.59;6219907;22;45272;-83
2023/10/12 05:49:57;;;;;;;;;11.33;9.67;;;;;23.09;55.14;100676.50;6219902;22;47032;-82
2023/10/12 05:52:23;;;;;;;;;12.00;12.00;;;;;23.05;55.02;100683.00;6220127;22;45450;-82
2023/10/12 05:54:51;;;;;;;;;12.67;11.00;;;;;23.06;55.21;100697.44;6245366;22;45414;-82
2023/10/12 05:57:19;;;;;;;;;16.33;15.00;;;;;23.05;55.73;100701.09;6218669;22;44954;-82
2023/10/12 05:59:49;;;;;;;;;11.00;11.00;;;;;23.21;55.22;100705.00;6246507;22;45650;-82
2023/10/12 06:02:17;;;;;;;;;13.33;11.33;;;;;23.05;55.46;100711.97;6255076;22;45857;-83
2023/10/12 06:04:44;;;;;;;;;13.33;12.33;;;;;23.03;55.61;100717.44;6224311;22;45411;-84
2023/10/12 06:07:10;;;;;;;;;12.00;12.00;;;;;23.04;55.37;100731.88;6219367;22;45258;-83
2023/10/12 06:09:37;;;;;;;;;13.67;12.67;;;;;23.06;55.53;100720.00;6246903;22;45336;-82
2023/10/12 06:12:07;;;;;;;;;16.00;15.67;;;;;23.13;55.76;100720.69;6226488;22;44882;-83
2023/10/12 06:14:37;;;;;;;;;14.00;14.00;;;;;23.08;55.63;100736.22;6252739;22;45351;-82
2023/10/12 06:17:07;;;;;;;;;14.67;14.00;;;;;23.00;55.26;100732.91;6251344;22;45421;-82
2023/10/12 06:19:36;;;;;;;;;13.67;11.67;;;;;22.99;55.47;100752.84;6224000;22;45915;-83
2023/10/12 06:22:25;;;;;;;;;12.33;11.00;;;;;23.02;56.17;100801.56;6223015;22;45380;-83
2023/10/12 06:24:52;;;;;;;;;12.00;10.00;;;;;22.97;55.74;100793.56;6253252;22;44731;-84
2023/10/12 06:29:55;;;;;;;;;14.33;13.33;;;;;23.08;57.74;100766.94;6246656;22;45226;-83
2023/10/12 06:32:33;;;;;;;;;14.00;11.67;;;;;22.95;58.17;100755.66;6222997;22;45347;-84
2023/10/12 06:37:49;;;;;;;;;14.00;13.00;;;;;22.26;72.86;100776.19;6252124;22;44792;-83
2023/10/12 06:45:51;;;;;;;;;18.00;16.67;;;;;21.52;100.00;100790.25;6219422;22;45567;-82
2023/10/12 06:48:44;;;;;;;;;20.00;17.67;;;;;21.62;100.00;100800.78;6252118;22;45462;-82
2023/10/12 06:51:15;;;;;;;;;18.00;17.33;;;;;21.46;100.00;100811.19;6254037;22;45381;-83
2023/10/12 06:53:51;;;;;;;;;16.00;16.00;;;;;21.53;100.00;100800.16;6226508;22;45386;-83
2023/10/12 06:59:09;;;;;;;;;22.33;19.67;;;;;21.54;100.00;100798.31;6221723;22;45350;-83
2023/10/12 07:01:39;;;;;;;;;20.33;18.00;;;;;21.37;100.00;100790.69;6249542;22;45425;-84
2023/10/12 07:04:13;;;;;;;;;17.67;16.33;;;;;21.32;100.00;100788.09;6223551;22;45346;-82
2023/10/12 07:06:40;;;;;;;;;19.00;18.00;;;;;21.18;100.00;100779.50;6251071;22;45351;-83
2023/10/12 07:09:47;;;;;;;;;17.00;16.33;;;;;21.37;100.00;100780.75;6249316;22;45672;-83
2023/10/12 07:12:20;;;;;;;;;22.00;19.67;;;;;21.26;100.00;100793.69;6228603;22;47133;-83
2023/10/12 07:14:47;;;;;;;;;22.67;22.00;;;;;21.07;100.00;100790.66;6225387;22;45720;-83
2023/10/12 07:17:14;;;;;;;;;20.33;20.00;;;;;21.20;100.00;100795.69;6253602;22;45362;-82
2023/10/12 07:19:41;;;;;;;;;20.00;20.00;;;;;21.09;100.00;100796.91;6224373;22;45265;-81
2023/10/12 07:22:48;;;;;;;;;14.33;12.67;;;;;21.44;100.00;100797.69;6231553;22;47311;-82
2023/10/12 07:25:22;;;;;;;;;19.33;19.33;;;;;21.23;100.00;100801.91;6242600;22;44909;-82
2023/10/12 07:27:58;;;;;;;;;16.00;16.00;;;;;21.22;100.00;100783.88;6242755;22;44879;-82
2023/10/12 07:36:57;;;;;;;;;19.67;19.00;;;;;21.49;100.00;100775.91;6155510;22;45278;-81
2023/10/12 07:39:38;;;;;;;;;17.00;16.00;;;;;21.45;100.00;100782.34;6177538;22;44787;-82
2023/10/12 07:42:31;;;;;;;;;21.00;18.33;;;;;21.81;95.78;100803.81;6175424;22;44789;-82
2023/10/12 07:45:29;;;;;;;;;19.33;18.33;;;;;21.84;93.90;100796.47;6175117;22;45423;-81
2023/10/12 07:48:31;;;;;;;;;19.00;19.00;;;;;22.02;93.53;100808.53;6175989;22;44814;-82
2023/10/12 07:57:11;;;;;;;;;22.33;20.33;;;;;21.95;91.88;100805.13;6111624;22;46659;-81
2023/10/12 07:59:54;;;;;;;;;18.00;16.67;;;;;21.83;91.02;100778.44;6240939;22;44847;-80
2023/10/12 08:03:05;;;;;;;;;19.67;19.33;;;;;21.99;91.33;100778.84;6267692;22;45255;-82
2023/10/12 08:13:55;;;;;;;;;18.67;16.33;;;;;22.48;88.89;100796.22;6173529;22;45504;-82
2023/10/12 08:16:40;;;;;;;;;19.00;18.00;;;;;22.30;89.00;100811.25;6112711;23;44839;-81
2023/10/12 08:19:39;;;;;;;;;25.33;21.67;;;;;22.42;88.40;100784.66;6090709;23;45157;-79
2023/10/12 08:23:02;;;;;;;;;23.00;21.00;;;;;22.65;87.87;100811.88;6087161;23;44810;-79
2023/10/12 08:25:37;;;;;;;;;18.67;18.67;;;;;22.36;88.54;100793.91;6116057;23;44802;-81
2023/10/12 08:28:24;;;;;;;;;20.67;19.67;;;;;22.78;88.13;100815.03;6114617;23;44745;-81
2023/10/12 08:31:00;;;;;;;;;20.00;18.33;;;;;22.81;87.97;100820.34;6117935;23;46969;-83
2023/10/12 08:39:08;;;;;;;;;15.00;15.00;;;;;23.14;87.12;100815.56;6117139;23;44859;-82
2023/10/12 08:44:58;;;;;;;;;18.50;16.50;;;;;23.40;84.61;100810.09;6185828;22;45071;31
2023/10/12 08:51:09;;;;;;;;;20.00;17.00;;;;;23.41;83.63;100801.00;6178616;22;44794;-81
2023/10/12 08:53:41;;;;;;;;;17.33;17.33;;;;;23.41;84.35;100795.56;6114182;23;47072;-80
2023/10/12 08:56:15;;;;;;;;;22.33;19.67;;;;;23.39;84.15;100797.47;6056505;23;45034;-82
2023/10/12 08:58:50;;;;;;;;;22.00;18.00;;;;;23.42;84.19;100770.22;6052580;23;44652;-81
2023/10/12 09:01:31;;;;;;;;;21.00;19.67;;;;;23.41;83.74;100790.16;6022338;23;44775;-80
2023/10/12 09:04:35;;;;;;;;;18.00;18.00;;;;;23.78;82.67;100805.94;6020789;23;47180;-81
2023/10/12 09:07:05;;;;;;;;;16.33;13.00;;;;;23.61;83.10;100817.41;6041650;23;45353;-81
2023/10/12 09:10:36;;;;;;;;;21.00;16.67;;;;;23.68;82.65;100812.66;6046725;23;44791;-83
2023/10/12 09:12:19;;;;;;;;;18.33;17.67;;;;;23.73;82.62;100813.34;6016391;23;45456;-82
2023/10/12 09:15:28;;;;;;;;;18.00;17.67;;;;;24.01;81.46;100812.25;6048265;23;47221;-84
2023/10/12 09:17:55;;;;;;;;;18.00;14.00;;;;;23.65;81.94;100783.78;6040725;23;45305;-84
2023/10/12 09:20:28;;;;;;;;;16.00;15.00;;;;;23.80;80.50;100776.00;6049914;23;45261;-84
2023/10/12 09:23:11;;;;;;;;;20.67;17.00;;;;;24.05;80.10;100806.63;6041388;23;45330;-84
2023/10/12 09:36:45;;;;;;;;;13.33;13.00;;;;;24.12;79.29;100818.16;6032713;23;45456;-85
2023/10/12 09:39:15;;;;;;;;;21.67;17.00;;;;;23.93;78.55;100820.72;6043756;23;45256;-85
2023/10/12 09:44:47;;;;;;;;;14.67;14.00;;;;;24.13;78.59;100812.63;5987827;23;45488;-87
2023/10/12 09:47:25;;;;;;;;;21.33;19.33;;;;;24.09;78.54;100789.25;5991109;23;45524;-83
2023/10/12 09:50:46;;;;;;;;;18.67;18.67;;;;;24.47;77.27;100816.66;5990450;23;45399;-84
2023/10/12 09:53:26;;;;;;;;;21.33;20.33;;;;;24.43;77.49;100828.63;5991428;23;44865;-85
2023/10/12 09:56:16;;;;;;;;;15.00;15.00;;;;;24.39;77.16;100816.13;5985559;23;45518;-86
2023/10/12 10:06:38;;;;;;;;;22.00;21.33;;;;;24.70;77.19;100822.97;6233676;22;46397;-84
2023/10/12 10:11:39;;;;;;;;;21.67;21.33;;;;;24.70;76.65;100790.34;6260706;22;44871;-83
2023/10/12 10:14:09;;;;;;;;;21.00;18.67;;;;;24.69;76.48;100811.22;6228269;22;44879;-83
2023/10/12 10:17:05;;;;;;;;;23.67;20.33;;;;;24.99;75.96;100788.19;6233928;22;44827;-83
2023/10/12 10:19:39;;;;;;;;;25.00;22.67;;;;;25.14;76.28;100818.28;6228053;22;47099;-82
2023/10/12 10:22:13;;;;;;;;;19.00;15.67;;;;;24.89;75.47;100791.31;6256211;22;45391;-83
2023/10/12 10:25:06;;;;;;;;;20.67;18.00;;;;;25.21;75.01;100802.59;6240993;22;44802;-80
2023/10/12 10:27:35;;;;;;;;;22.00;17.33;;;;;25.14;75.46;100812.84;6232814;22;44844;-81
2023/10/12 10:42:07;;;;;;;;;19.00;19.00;;;;;25.23;74.98;100767.13;6257063;22;45422;-84
2023/10/12 10:48:07;;;;;;;;;21.33;19.33;;;;;25.38;75.55;100792.78;6133574;23;45645;-85
2023/10/12 10:50:34;;;;;;;;;23.67;22.00;;;;;25.35;75.30;100800.13;6108243;23;45484;-86
2023/10/12 10:53:08;;;;;;;;;24.00;24.00;;;;;25.53;75.47;100808.38;6132238;23;45457;-85
2023/10/12 10:55:48;;;;;;;;;23.67;22.00;;;;;25.62;75.15;100812.53;6129479;23;45473;-86
2023/10/12 10:58:49;;;;;;;;;;;;;;;;;;;;;
2023/10/12 11:01:46;;;;;;;;;25.33;24.00;;;;;26.07;74.07;100820.31;6097573;23;65894;-86
2023/10/12 11:04:55;;;;;;;;;23.67;21.67;;;;;26.00;73.31;100790.75;6105364;23;46916;-87
2023/10/12 11:07:20;;;;;;;;;20.00;19.33;;;;;26.08;73.38;100816.66;6096495;23;45444;-89
2023/10/12 11:10:19;;;;;;;;;25.67;21.33;;;;;26.41;73.09;100818.63;6109107;23;44835;-83
2023/10/12 11:13:33;;;;;;;;;22.33;20.33;;;;;26.62;72.04;100815.78;6099496;23;45495;-88
2023/10/12 11:16:34;;;;;;;;;25.00;24.00;;;;;26.57;72.16;100802.38;5995502;23;45652;-88
2023/10/12 11:19:56;;;;;;;;;;;;;;;;;;;;;
2023/10/12 11:23:12;;;;;;;;;26.00;24.67;;;;;26.76;71.25;100824.16;6013698;23;69238;-90
2023/10/12 12:41:25;;;;;;;;;22.00;21.67;;;;;27.29;73.38;100790.41;6209412;22;45419;-84
2023/10/12 12:47:42;;;;;;;;;19.33;18.33;;;;;27.05;72.51;100789.00;6168467;23;45369;-86
2023/10/12 12:56:53;;;;;;;;;15.33;14.00;;;;;26.64;72.98;100778.41;6196574;23;45301;-84
2023/10/12 13:06:55;;;;;;;;;17.00;15.67;;;;;27.05;72.61;100792.59;6072821;23;44879;-85
2023/10/12 14:07:03;;;;;;;;;15.00;14.00;;;;;26.26;75.54;100781.25;6198820;22;45707;-85
2023/10/12 14:19:58;;;;;;;;;13.33;13.00;;;;;26.62;74.98;100753.06;6161074;23;45381;-87
2023/10/12 14:22:33;;;;;;;;;15.33;12.67;;;;;26.40;74.85;100746.00;6165231;23;44856;-88
2023/10/12 14:25:06;;;;;;;;;14.00;12.33;;;;;26.48;75.42;100746.47;6167794;23;45382;-88
2023/10/12 14:30:54;;;;;;;;;13.00;12.67;;;;;26.47;74.83;100730.19;6160599;22;44906;-87
2023/10/12 14:33:19;;;;;;;;;12.00;10.33;;;;;26.68;73.75;100755.47;6165636;23;45266;-88
2023/10/12 14:36:07;;;;;;;;;12.33;11.00;;;;;26.85;73.38;100747.25;6166424;22;44819;-86
2023/10/12 14:53:52;;;;;;;;;13.25;12.75;;;;;27.26;70.78;100741.41;6209726;22;47081;-86
2023/10/12 14:56:23;;;;;;;;;11.75;11.00;;;;;27.03;71.36;100700.84;6254505;22;44813;-86
2023/10/12 15:02:20;;;;;;;;;10.00;9.33;;;;;27.30;71.23;100714.81;6157224;23;46089;-85
2023/10/12 15:04:59;;;;;;;;;11.33;10.00;;;;;27.23;70.96;100719.75;6157188;23;45565;-86
2023/10/12 15:07:27;;;;;;;;;11.75;9.00;;;;;27.16;70.60;100712.81;6158862;22;45812;-86
2023/10/12 15:09:55;;;;;;;;;9.33;9.33;;;;;27.10;70.72;100711.31;6134764;23;45417;-86
2023/10/12 15:16:19;;;;;;;;;11.00;11.00;;;;;27.21;70.89;100721.66;6100375;23;44854;-86
2023/10/12 15:18:50;;;;;;;;;14.33;14.33;;;;;27.14;70.77;100721.09;6075870;23;45303;-86
2023/10/12 15:21:27;;;;;;;;;;;;;;;;;;;;;
2023/10/12 15:24:40;;;;;;;;;13.00;13.00;;;;;27.03;71.10;100701.72;6100952;23;74498;-87
2023/10/12 15:27:10;;;;;;;;;10.00;10.00;;;;;26.98;70.82;100694.75;6100686;23;45292;-86
2023/10/12 15:29:45;;;;;;;;;10.00;9.67;;;;;27.09;70.65;100712.28;6099568;23;45407;-87
2023/10/12 15:32:11;;;;;;;;;11.33;11.33;;;;;26.83;71.56;100694.63;6128430;23;44743;-87
2023/10/12 15:34:40;;;;;;;;;11.33;11.00;;;;;26.85;71.18;100700.00;6160332;23;45346;-85
2023/10/12 15:43:22;;;;;;;;;10.33;10.00;;;;;27.13;71.26;100716.63;6208433;22;45509;-88
2023/10/12 15:46:35;;;;;;;;;11.00;10.00;;;;;26.97;70.57;100690.28;6216359;22;47499;-87
2023/10/12 15:49:06;;;;;;;;;11.00;9.33;;;;;26.85;70.70;100697.28;6224697;22;45413;-90
2023/10/12 15:56:15;;;;;;;;;6.00;6.00;;;;;26.96;70.49;100683.03;6085965;23;45257;-87
2023/10/12 16:02:15;;;;;;;;;9.67;9.67;;;;;26.98;70.17;100697.47;6146675;23;45325;-86
2023/10/12 16:04:45;;;;;;;;;10.00;9.00;;;;;26.83;70.34;100707.41;6135114;23;44797;-87
2023/10/12 16:07:17;;;;;;;;;6.33;6.33;;;;;26.68;70.85;100679.97;6134438;23;44910;-87
2023/10/12 16:09:46;;;;;;;;;7.67;6.00;;;;;26.68;71.06;100685.44;6159936;22;48052;-87
2023/10/12 16:12:17;;;;;;;;;6.00;6.00;;;;;26.90;70.67;100717.00;6159287;22;45302;-87
2023/10/12 16:14:54;;;;;;;;;7.67;7.00;;;;;27.00;70.18;100720.09;6159401;23;44944;-87
2023/10/12 16:17:38;;;;;;;;;;;;;;;;;;;;;
2023/10/12 16:20:17;;;;;;;;;9.67;8.00;;;;;26.73;70.59;100690.63;6156601;23;74003;-88
2023/10/12 16:22:47;;;;;;;;;8.75;8.75;;;;;26.77;70.85;100692.22;6160106;22;45369;-86
2023/10/12 16:26:00;;;;;;;;;6.00;6.00;;;;;26.72;70.88;100686.13;6160863;23;45258;-88
2023/10/12 16:29:05;;;;;;;;;;;;;;;;;;;;;
2023/10/12 16:31:37;;;;;;;;;8.00;7.00;;;;;26.60;70.75;100693.16;6175576;22;74397;-87
2023/10/12 16:34:08;;;;;;;;;10.00;8.67;;;;;26.67;71.15;100702.75;6226117;22;45174;-88
2023/10/12 16:36:34;;;;;;;;;8.33;7.67;;;;;26.45;71.43;100716.63;6227636;22;45325;-87
2023/10/12 16:39:00;;;;;;;;;7.67;7.00;;;;;26.31;71.30;100708.28;6249596;22;45240;-87
2023/10/12 16:41:26;;;;;;;;;8.00;7.50;;;;;26.31;71.37;100708.28;6225288;22;46404;-87
2023/10/12 16:44:00;;;;;;;;;7.33;7.33;;;;;26.55;71.81;100730.66;6252485;22;44782;-86
2023/10/12 16:46:31;;;;;;;;;10.00;7.75;;;;;26.27;72.16;100728.47;6225395;22;45360;-86
2023/10/12 16:59:09;;;;;;;;;10.00;9.67;;;;;25.81;73.58;100731.66;6187932;22;45404;-85
2023/10/12 17:01:35;;;;;;;;;7.00;7.00;;;;;25.52;73.65;100697.69;6220863;22;45462;-86
2023/10/12 17:04:12;;;;;;;;;10.33;9.67;;;;;25.80;73.71;100723.56;6250551;22;45626;-87
2023/10/12 17:06:38;;;;;;;;;9.00;8.67;;;;;25.63;74.41;100738.00;6223684;22;45419;-86
2023/10/12 17:09:04;;;;;;;;;9.67;9.67;;;;;25.55;74.49;100739.28;6249872;22;45268;-86
2023/10/12 17:11:31;;;;;;;;;10.67;10.67;;;;;25.46;74.85;100730.66;6249618;22;45432;-86
2023/10/12 17:13:56;;;;;;;;;10.00;10.00;;;;;25.46;74.63;100749.72;6224199;22;47133;-86
2023/10/12 17:16:23;;;;;;;;;8.00;8.00;;;;;25.55;75.17;100741.09;6226495;22;45146;-86
2023/10/12 17:18:49;;;;;;;;;10.67;10.00;;;;;25.33;75.21;100742.16;6225029;22;44856;-86
2023/10/12 17:21:14;;;;;;;;;8.67;8.67;;;;;25.34;75.62;100754.78;6226105;22;45399;-86
2023/10/12 17:23:39;;;;;;;;;8.00;8.00;;;;;25.31;75.49;100754.06;6252843;22;45341;-87
2023/10/12 17:26:06;;;;;;;;;10.67;8.00;;;;;25.29;75.71;100761.44;6252832;22;45428;-86
2023/10/12 17:28:33;;;;;;;;;8.00;8.00;;;;;25.23;75.80;100753.53;6222664;22;45419;-85
2023/10/12 17:31:05;;;;;;;;;10.50;9.00;;;;;25.47;75.72;100760.56;6225221;22;44778;-86
2023/10/12 17:33:31;;;;;;;;;9.50;9.50;;;;;25.23;76.04;100762.59;6226289;22;46868;-87
2023/10/12 17:35:58;;;;;;;;;10.00;10.00;;;;;25.17;76.48;100762.84;6253029;22;45308;-88
2023/10/12 17:38:23;;;;;;;;;9.33;9.33;;;;;25.13;76.49;100764.81;6227119;22;44675;-87
2023/10/12 17:40:49;;;;;;;;;14.33;9.33;;;;;25.14;76.54;100765.69;6254038;22;45335;-87
2023/10/12 17:43:15;;;;;;;;;9.67;8.00;;;;;25.25;76.57;100760.69;6254408;22;44948;-85
2023/10/12 17:45:41;;;;;;;;;8.67;8.00;;;;;25.07;76.66;100761.50;6223963;22;45060;-87
2023/10/12 17:48:08;;;;;;;;;11.00;9.33;;;;;25.09;77.00;100762.31;6251136;22;45192;-87
2023/10/12 17:50:37;;;;;;;;;8.67;8.00;;;;;25.24;76.91;100758.91;6225119;22;45443;-87
2023/10/12 17:53:03;;;;;;;;;10.33;10.33;;;;;25.02;77.14;100763.53;6224266;22;47507;-87
2023/10/12 17:58:51;;;;;;;;;8.00;8.00;;;;;24.91;77.38;100762.19;6251768;22;45397;-87
2023/10/12 18:01:18;;;;;;;;;7.33;6.33;;;;;24.90;77.40;100760.41;6250868;22;45262;-86
2023/10/12 18:03:43;;;;;;;;;10.33;9.67;;;;;24.85;77.59;100767.91;6221421;22;46775;-86
2023/10/12 18:06:10;;;;;;;;;10.00;10.00;;;;;24.91;77.59;100766.75;6224017;22;45285;-87
2023/10/12 18:08:37;;;;;;;;;9.00;9.00;;;;;24.79;77.89;100762.75;6251589;22;45259;-87
2023/10/12 18:11:04;;;;;;;;;9.33;9.33;;;;;24.82;78.10;100767.16;6252381;22;45343;-87
2023/10/12 18:13:34;;;;;;;;;10.33;9.00;;;;;24.88;77.98;100761.44;6224377;22;46104;-86
2023/10/12 18:16:03;;;;;;;;;8.00;8.00;;;;;24.73;77.98;100763.03;6223861;22;44925;-87
2023/10/12 18:18:31;;;;;;;;;11.67;10.67;;;;;24.87;78.40;100746.97;6224749;22;45321;-87
2023/10/12 18:20:58;;;;;;;;;8.33;7.00;;;;;24.66;78.43;100742.47;6250426;22;45517;-86